Terminal Aerodrome Forecast
Issued by NWS Portland, OR

Home | Current Version | Previous Version | Text Only | Print | Product List | Glossary On
Versions: 1 2 3 4 5 6 7 8 9 10 11 12 13 14 15 16 17 18 19 20 21 22 23
076
FTUS46 KPQR 311140
TAFSLE
TAF
KSLE 311140Z 3112/0112 VRB03KT P6SM OVC040
     FM312000 19006KT P6SM -SHRA SCT028 OVC040
     FM010100 26007KT P6SM SCT035 BKN060
     FM011000 20004KT P6SM BKN025 BKN050=

USA.gov is the U.S. government's official web portal to all federal, state and local government web resources and services.